createdAt,value
2023-01-29T00:01:51.609Z,10.60
2023-01-29T00:04:58.738Z,11.00
2023-01-29T00:08:01.101Z,12.83
2023-01-29T00:11:04.967Z,13.73
2023-01-29T00:14:07.369Z,11.90
2023-01-29T00:17:10.535Z,12.53
2023-01-29T00:20:14.035Z,13.10
2023-01-29T00:23:16.371Z,12.30
2023-01-29T00:26:21.239Z,13.70
2023-01-29T00:29:23.254Z,14.00
2023-01-29T00:32:25.158Z,13.77
2023-01-29T00:35:27.576Z,14.63
2023-01-29T00:38:29.483Z,13.70
2023-01-29T00:41:52.049Z,12.10
2023-01-29T00:45:00.212Z,9.83
2023-01-29T00:48:02.204Z,11.70
2023-01-29T00:51:04.240Z,14.23
2023-01-29T00:54:07.188Z,11.87
2023-01-29T00:57:09.148Z,12.93
2023-01-29T01:00:14.086Z,11.30
2023-01-29T01:03:16.727Z,11.43
2023-01-29T01:06:18.695Z,13.07
2023-01-29T01:09:38.965Z,13.70
2023-01-29T01:12:40.962Z,11.97
2023-01-29T01:15:42.905Z,12.80
2023-01-29T01:18:45.559Z,14.07
2023-01-29T01:21:48.571Z,10.73
2023-01-29T01:24:50.937Z,11.67
2023-01-29T01:27:54.079Z,12.27
2023-01-29T01:30:56.711Z,11.20
2023-01-29T01:33:58.761Z,10.83
2023-01-29T01:37:00.808Z,12.57
2023-01-29T01:40:03.423Z,13.83
2023-01-29T01:43:06.515Z,12.43
2023-01-29T01:46:09.954Z,12.40
2023-01-29T01:49:16.969Z,9.10
2023-01-29T01:52:19.885Z,10.73
2023-01-29T01:55:24.723Z,9.87
2023-01-29T01:58:30.284Z,8.23
2023-01-29T02:01:32.535Z,9.90
2023-01-29T02:04:53.091Z,8.47
2023-01-29T02:08:13.754Z,12.10
2023-01-29T02:11:15.729Z,10.50
2023-01-29T02:14:17.894Z,8.17
2023-01-29T02:17:20.581Z,10.07
2023-01-29T02:20:26.084Z,11.37
2023-01-29T02:23:54.945Z,14.67
2023-01-29T02:27:14.278Z,6.23
2023-01-29T02:30:34.366Z,13.90
2023-01-29T02:33:39.702Z,10.30
2023-01-29T02:36:49.944Z,11.70
2023-01-29T02:40:01.159Z,11.00
2023-01-29T02:43:11.041Z,11.60
2023-01-29T02:46:16.918Z,9.80
2023-01-29T02:49:57.832Z,11.17
2023-01-29T02:53:07.132Z,12.10
2023-01-29T02:56:15.713Z,9.33
2023-01-29T02:59:23.353Z,10.87
2023-01-29T03:02:48.012Z,11.17
2023-01-29T03:06:02.622Z,13.63
2023-01-29T03:09:30.348Z,10.97
2023-01-29T03:12:34.343Z,10.00
2023-01-29T03:15:47.298Z,13.77
2023-01-29T03:19:02.530Z,10.10
2023-01-29T03:22:08.704Z,10.87
2023-01-29T03:25:30.207Z,11.13
2023-01-29T03:28:51.038Z,11.80
2023-01-29T03:32:04.417Z,10.27
2023-01-29T03:35:09.068Z,8.80
2023-01-29T03:38:11.907Z,11.17
2023-01-29T03:41:20.063Z,11.73
2023-01-29T03:44:43.477Z,10.67
2023-01-29T03:48:05.687Z,11.70
2023-01-29T03:51:23.306Z,12.13
2023-01-29T03:55:10.891Z,10.93
2023-01-29T03:58:31.649Z,11.97
2023-01-29T04:01:52.226Z,11.67
2023-01-29T04:04:58.394Z,10.47
2023-01-29T04:08:07.181Z,10.57
2023-01-29T04:11:13.041Z,8.73
2023-01-29T04:14:16.029Z,11.13
2023-01-29T04:17:24.817Z,8.57
2023-01-29T04:20:27.300Z,13.20
2023-01-29T04:23:29.325Z,11.80
2023-01-29T04:27:08.740Z,11.90
2023-01-29T04:30:24.831Z,12.53
2023-01-29T04:33:45.415Z,11.87
2023-01-29T04:37:05.797Z,10.80
2023-01-29T04:40:15.635Z,11.53
2023-01-29T04:43:28.726Z,9.87
2023-01-29T04:46:45.759Z,10.20
2023-01-29T04:50:09.985Z,11.93
2023-01-29T04:53:29.831Z,10.20
2023-01-29T04:56:47.622Z,10.67
2023-01-29T05:00:00.307Z,8.97
2023-01-29T05:03:03.218Z,10.00
2023-01-29T05:06:06.315Z,9.17
2023-01-29T05:09:08.923Z,8.57
2023-01-29T05:12:11.972Z,7.60
2023-01-29T05:15:24.891Z,9.40
2023-01-29T05:18:26.961Z,10.00
2023-01-29T05:21:29.678Z,12.67
2023-01-29T05:24:31.621Z,8.80
2023-01-29T05:27:54.359Z,9.10
2023-01-29T05:30:57.142Z,8.23
2023-01-29T05:33:59.281Z,9.93
2023-01-29T05:37:01.221Z,7.23
2023-01-29T05:40:03.326Z,9.00
2023-01-29T05:43:06.265Z,6.57
2023-01-29T05:46:08.252Z,5.43
2023-01-29T05:49:10.256Z,7.37
2023-01-29T05:52:12.960Z,9.83
2023-01-29T05:55:15.044Z,7.67
2023-01-29T05:58:17.125Z,6.77
2023-01-29T06:01:22.034Z,7.93
2023-01-29T06:04:24.776Z,5.43
2023-01-29T06:07:26.821Z,7.77
2023-01-29T06:10:28.848Z,7.00
2023-01-29T06:13:30.775Z,7.97
2023-01-29T06:16:32.807Z,8.00
2023-01-29T06:19:34.806Z,7.17
2023-01-29T06:22:36.884Z,6.30
2023-01-29T06:25:39.164Z,9.70
2023-01-29T06:28:41.211Z,10.93
2023-01-29T06:31:43.960Z,7.47
2023-01-29T06:34:48.572Z,9.43
2023-01-29T06:37:51.462Z,6.77
2023-01-29T06:40:54.113Z,8.20
2023-01-29T06:43:56.045Z,6.70
2023-01-29T06:46:58.490Z,5.70
2023-01-29T06:50:00.880Z,6.07
2023-01-29T06:53:02.857Z,8.60
2023-01-29T06:56:05.563Z,6.33
2023-01-29T06:59:07.466Z,6.17
2023-01-29T07:02:09.669Z,10.13
2023-01-29T07:05:11.671Z,5.10
2023-01-29T07:08:13.778Z,3.87
2023-01-29T07:11:15.752Z,6.50
2023-01-29T07:14:17.871Z,6.90
2023-01-29T07:17:20.814Z,6.97
2023-01-29T07:20:23.020Z,6.00
2023-01-29T07:23:25.222Z,6.93
2023-01-29T07:26:27.175Z,8.93
2023-01-29T07:29:29.209Z,6.90
2023-01-29T07:32:31.093Z,7.33
2023-01-29T07:35:37.090Z,6.33
2023-01-29T07:38:39.408Z,6.97
2023-01-29T07:41:45.214Z,5.03
2023-01-29T07:44:47.211Z,4.93
2023-01-29T07:47:53.505Z,5.90
2023-01-29T07:50:56.861Z,6.33
2023-01-29T07:53:59.705Z,7.60
2023-01-29T07:57:01.722Z,4.83
2023-01-29T08:00:04.047Z,6.77
2023-01-29T08:03:08.187Z,5.23
2023-01-29T08:06:10.212Z,7.70
2023-01-29T08:09:12.589Z,3.70
2023-01-29T08:12:14.541Z,7.63
2023-01-29T08:15:16.601Z,9.97
2023-01-29T08:18:21.170Z,3.50
2023-01-29T08:21:23.191Z,12.70
2023-01-29T08:24:31.294Z,11.73
2023-01-29T08:27:44.056Z,8.67
2023-01-29T08:30:46.277Z,9.90
2023-01-29T08:33:48.607Z,8.57
2023-01-29T08:36:50.481Z,6.87
2023-01-29T08:39:52.503Z,8.13
2023-01-29T08:43:09.175Z,9.20
2023-01-29T08:46:12.017Z,4.70
2023-01-29T08:49:14.014Z,5.97
2023-01-29T08:52:16.046Z,7.50
2023-01-29T08:55:18.759Z,8.90
2023-01-29T08:58:22.633Z,10.00
2023-01-29T09:01:24.724Z,8.30
2023-01-29T09:04:26.823Z,7.13
2023-01-29T09:07:29.790Z,6.70
2023-01-29T09:10:32.595Z,8.77
2023-01-29T09:13:34.876Z,8.60
2023-01-29T09:16:37.761Z,7.07
2023-01-29T09:19:39.680Z,8.40
2023-01-29T09:22:42.552Z,8.23
2023-01-29T09:25:44.532Z,8.43
2023-01-29T09:28:46.757Z,6.93
2023-01-29T09:31:48.885Z,6.57
2023-01-29T09:34:51.076Z,7.63
2023-01-29T09:37:53.283Z,9.30
2023-01-29T09:41:22.729Z,7.27
2023-01-29T09:44:40.953Z,7.07
2023-01-29T09:47:43.019Z,6.33
2023-01-29T09:50:47.830Z,6.97
2023-01-29T09:53:59.934Z,5.83
2023-01-29T09:57:02.090Z,6.77
2023-01-29T10:00:04.797Z,6.03
2023-01-29T10:03:23.890Z,7.10
2023-01-29T10:06:35.821Z,6.50
2023-01-29T10:09:52.936Z,9.37
2023-01-29T10:13:02.027Z,6.27
2023-01-29T10:16:22.140Z,6.90
2023-01-29T10:19:30.110Z,6.17
2023-01-29T10:22:45.408Z,6.90
2023-01-29T10:25:47.704Z,4.60
2023-01-29T10:28:51.212Z,7.10
2023-01-29T10:31:57.819Z,6.37
2023-01-29T10:35:14.371Z,8.27
2023-01-29T10:38:34.602Z,7.10
2023-01-29T10:42:08.900Z,6.20
2023-01-29T10:45:10.865Z,6.33
2023-01-29T10:48:31.002Z,5.67
2023-01-29T10:51:53.436Z,4.93
2023-01-29T10:55:15.085Z,5.90
2023-01-29T10:58:34.397Z,6.37
2023-01-29T11:01:36.384Z,7.70
2023-01-29T11:04:39.840Z,6.90
2023-01-29T11:07:41.907Z,5.53
2023-01-29T11:11:03.168Z,7.23
2023-01-29T11:14:09.585Z,6.60
2023-01-29T11:17:20.171Z,8.87
2023-01-29T11:20:30.381Z,8.97
2023-01-29T11:23:34.493Z,9.97
2023-01-29T11:26:41.244Z,10.90
2023-01-29T11:29:48.429Z,13.10
2023-01-29T11:32:53.244Z,10.47
2023-01-29T11:35:58.926Z,11.10
2023-01-29T11:39:21.708Z,8.87
2023-01-29T11:42:24.033Z,7.83
2023-01-29T11:45:35.362Z,7.07
2023-01-29T11:48:44.291Z,8.90
2023-01-29T11:51:53.332Z,8.97
2023-01-29T11:55:08.641Z,7.63
2023-01-29T11:58:18.225Z,6.87
2023-01-29T12:01:34.297Z,8.20
2023-01-29T12:04:39.371Z,9.20
2023-01-29T12:07:42.766Z,7.67
2023-01-29T12:10:44.856Z,9.53
2023-01-29T12:13:55.179Z,9.17
2023-01-29T12:17:01.897Z,7.27
2023-01-29T12:20:16.426Z,7.17
2023-01-29T12:23:27.612Z,7.10
2023-01-29T12:26:38.685Z,7.47
2023-01-29T12:29:53.487Z,8.30
2023-01-29T12:33:41.512Z,8.13
2023-01-29T12:36:53.500Z,7.67
2023-01-29T12:39:57.007Z,6.87
2023-01-29T12:43:05.076Z,8.67
2023-01-29T12:46:10.798Z,6.70
2023-01-29T12:49:17.005Z,5.60
2023-01-29T12:52:23.623Z,6.13
2023-01-29T12:55:29.271Z,6.30
2023-01-29T12:58:35.770Z,7.30
2023-01-29T13:01:43.858Z,10.10
2023-01-29T13:05:04.903Z,5.97
2023-01-29T13:08:16.746Z,6.70
2023-01-29T13:11:41.395Z,5.67
2023-01-29T13:15:00.736Z,7.23
2023-01-29T13:18:18.709Z,5.57
2023-01-29T13:21:31.128Z,6.73
2023-01-29T13:24:40.627Z,5.53
2023-01-29T13:27:44.090Z,4.70
2023-01-29T13:30:46.658Z,5.37
2023-01-29T13:33:56.191Z,7.13
2023-01-29T13:37:00.750Z,5.83
2023-01-29T13:40:04.877Z,7.20
2023-01-29T13:43:22.024Z,11.50
2023-01-29T13:46:24.096Z,6.57
2023-01-29T13:49:29.976Z,10.53
2023-01-29T13:52:55.501Z,8.50
2023-01-29T13:56:30.653Z,9.33
2023-01-29T13:59:54.178Z,7.13
2023-01-29T14:02:56.305Z,11.47
2023-01-29T14:06:02.334Z,7.43
2023-01-29T14:09:08.658Z,5.97
2023-01-29T14:12:33.186Z,8.47
2023-01-29T14:15:37.539Z,10.43
2023-01-29T14:18:55.618Z,6.63
2023-01-29T14:21:59.131Z,8.70
2023-01-29T14:25:03.210Z,8.20
2023-01-29T14:28:15.525Z,7.30
2023-01-29T14:31:30.663Z,8.27
2023-01-29T14:35:02.359Z,7.70
2023-01-29T14:38:06.579Z,9.33
2023-01-29T14:41:31.803Z,10.60
2023-01-29T14:44:46.079Z,9.93
2023-01-29T14:47:48.007Z,10.47
2023-01-29T14:50:52.277Z,12.57
2023-01-29T14:54:23.628Z,9.63
2023-01-29T14:57:26.020Z,8.63
2023-01-29T15:00:32.608Z,12.80
2023-01-29T15:03:42.937Z,9.03
2023-01-29T15:06:44.979Z,9.37
2023-01-29T15:09:48.403Z,10.90
2023-01-29T15:12:57.276Z,15.67
2023-01-29T15:16:11.880Z,12.00
2023-01-29T15:19:20.672Z,14.60
2023-01-29T15:22:26.231Z,10.97
2023-01-29T15:25:34.218Z,10.23
2023-01-29T15:28:36.701Z,9.80
2023-01-29T15:31:42.872Z,12.77
2023-01-29T15:34:44.886Z,17.40
2023-01-29T15:38:13.499Z,12.50
2023-01-29T15:41:21.612Z,10.93
2023-01-29T15:44:24.736Z,9.50
2023-01-29T15:47:31.594Z,11.20
2023-01-29T15:50:35.925Z,9.63
2023-01-29T15:53:43.133Z,10.90
2023-01-29T15:56:48.311Z,10.83
2023-01-29T15:59:52.323Z,9.37
2023-01-29T16:02:55.139Z,7.20
2023-01-29T16:05:58.172Z,9.23
2023-01-29T16:09:00.273Z,14.47
2023-01-29T16:12:02.561Z,14.43
2023-01-29T16:15:05.411Z,13.23
2023-01-29T16:18:25.590Z,11.93
2023-01-29T16:21:37.265Z,10.80
2023-01-29T16:24:41.952Z,11.83
2023-01-29T16:27:46.092Z,10.97
2023-01-29T16:30:56.801Z,11.23
2023-01-29T16:33:59.639Z,20.63
2023-01-29T16:37:05.359Z,8.93
2023-01-29T16:40:29.995Z,12.40
2023-01-29T16:43:45.500Z,10.37
2023-01-29T16:46:49.238Z,10.33
2023-01-29T16:49:54.564Z,10.87
2023-01-29T16:52:58.294Z,10.13
2023-01-29T16:56:06.045Z,13.83
2023-01-29T16:59:17.014Z,16.43
2023-01-29T17:02:33.510Z,14.00
2023-01-29T17:05:37.557Z,13.07
2023-01-29T17:08:42.253Z,10.70
2023-01-29T17:11:44.262Z,11.43
2023-01-29T17:15:04.619Z,11.83
2023-01-29T17:18:22.953Z,15.37
2023-01-29T17:21:25.339Z,17.90
2023-01-29T17:24:27.324Z,14.50
2023-01-29T17:27:29.648Z,14.27
2023-01-29T17:30:35.075Z,11.77
2023-01-29T17:33:41.455Z,14.43
2023-01-29T17:36:44.115Z,12.93
2023-01-29T17:39:47.970Z,11.87
2023-01-29T17:42:49.901Z,14.47
2023-01-29T17:45:52.224Z,11.90
2023-01-29T17:48:54.910Z,12.63
2023-01-29T17:51:58.152Z,13.23
2023-01-29T17:55:00.014Z,11.10
2023-01-29T17:58:02.021Z,13.60
2023-01-29T18:01:04.126Z,13.47
2023-01-29T18:04:06.462Z,18.20
2023-01-29T18:07:10.176Z,17.13
2023-01-29T18:10:15.654Z,14.10
2023-01-29T18:13:17.597Z,13.93
2023-01-29T18:16:22.233Z,14.17
2023-01-29T18:19:31.283Z,13.90
2023-01-29T18:22:33.676Z,16.87
2023-01-29T18:25:35.731Z,11.93
2023-01-29T18:28:38.620Z,11.37
2023-01-29T18:31:40.971Z,14.23
2023-01-29T18:34:43.437Z,15.00
2023-01-29T18:37:46.000Z,14.70
2023-01-29T18:40:48.059Z,13.40
2023-01-29T18:43:53.467Z,12.50
2023-01-29T18:46:55.414Z,14.83
2023-01-29T18:49:57.386Z,12.37
2023-01-29T18:52:59.666Z,12.47
2023-01-29T18:56:06.757Z,14.17
2023-01-29T18:59:10.634Z,10.97
2023-01-29T19:02:17.647Z,14.37
2023-01-29T19:05:22.996Z,9.43
2023-01-29T19:08:25.041Z,14.77
2023-01-29T19:11:26.948Z,9.37
2023-01-29T19:14:29.451Z,11.03
2023-01-29T19:17:31.505Z,10.20
2023-01-29T19:20:33.569Z,11.70
2023-01-29T19:23:35.472Z,11.60
2023-01-29T19:26:37.730Z,10.57
2023-01-29T19:29:39.758Z,10.27
2023-01-29T19:32:41.798Z,11.57
2023-01-29T19:35:46.929Z,9.53
2023-01-29T19:38:49.633Z,9.97
2023-01-29T19:41:51.538Z,9.47
2023-01-29T19:44:54.761Z,8.67
2023-01-29T19:47:56.743Z,9.70
2023-01-29T19:51:00.634Z,10.30
2023-01-29T19:54:04.765Z,9.77
2023-01-29T19:57:07.890Z,10.27
2023-01-29T20:00:12.377Z,10.07
2023-01-29T20:03:14.577Z,9.93
2023-01-29T20:06:18.487Z,13.20
2023-01-29T20:09:20.771Z,10.53
2023-01-29T20:12:22.933Z,10.40
2023-01-29T20:15:25.138Z,10.47
2023-01-29T20:18:27.066Z,11.43
2023-01-29T20:21:29.221Z,10.13
2023-01-29T20:24:39.221Z,9.27
2023-01-29T20:27:41.390Z,10.57
2023-01-29T20:30:45.853Z,7.10
2023-01-29T20:33:48.329Z,5.10
2023-01-29T20:36:50.583Z,9.23
2023-01-29T20:39:52.573Z,10.67
2023-01-29T20:42:54.691Z,10.43
2023-01-29T20:45:59.975Z,12.90
2023-01-29T20:49:02.325Z,10.73
2023-01-29T20:52:04.590Z,14.77
2023-01-29T20:55:08.284Z,13.20
2023-01-29T20:58:10.533Z,11.03
2023-01-29T21:01:19.902Z,7.57
2023-01-29T21:04:22.608Z,9.57
2023-01-29T21:07:24.669Z,7.73
2023-01-29T21:10:26.665Z,6.73
2023-01-29T21:13:28.760Z,8.07
2023-01-29T21:16:31.363Z,7.57
2023-01-29T21:19:33.601Z,11.17
2023-01-29T21:22:36.175Z,10.57
2023-01-29T21:25:39.851Z,9.17
2023-01-29T21:28:42.236Z,9.63
2023-01-29T21:31:44.330Z,7.73
2023-01-29T21:34:46.572Z,9.00
2023-01-29T21:37:49.030Z,11.87
2023-01-29T21:40:50.952Z,7.43
2023-01-29T21:43:52.917Z,8.97
2023-01-29T21:46:55.414Z,7.60
2023-01-29T21:49:57.309Z,9.87
2023-01-29T21:52:59.575Z,5.67
2023-01-29T21:56:03.475Z,6.73
2023-01-29T21:59:06.150Z,5.57
2023-01-29T22:02:14.151Z,7.13
2023-01-29T22:05:19.808Z,6.40
2023-01-29T22:08:22.132Z,8.13
2023-01-29T22:11:24.197Z,8.10
2023-01-29T22:14:26.159Z,7.27
2023-01-29T22:17:29.113Z,6.33
2023-01-29T22:20:31.519Z,6.97
2023-01-29T22:23:34.403Z,7.13
2023-01-29T22:26:36.342Z,5.80
2023-01-29T22:29:38.842Z,9.37
2023-01-29T22:32:40.821Z,7.23
2023-01-29T22:35:42.940Z,5.23
2023-01-29T22:38:47.113Z,5.37
2023-01-29T22:41:52.014Z,6.83
2023-01-29T22:44:54.525Z,6.83
2023-01-29T22:47:57.039Z,6.87
2023-01-29T22:51:12.225Z,7.30
2023-01-29T22:54:16.061Z,5.70
2023-01-29T22:57:18.165Z,8.00
2023-01-29T23:00:20.881Z,6.10
2023-01-29T23:03:22.939Z,5.80
2023-01-29T23:06:27.449Z,5.53
2023-01-29T23:09:29.817Z,6.33
2023-01-29T23:12:32.046Z,6.30
2023-01-29T23:15:34.486Z,9.03
2023-01-29T23:18:36.693Z,7.67
2023-01-29T23:21:39.933Z,2.93
2023-01-29T23:24:42.395Z,6.07
2023-01-29T23:27:44.317Z,7.00
2023-01-29T23:30:48.055Z,7.13
2023-01-29T23:33:50.730Z,5.90
2023-01-29T23:36:53.019Z,6.77
2023-01-29T23:39:54.900Z,6.20
2023-01-29T23:42:56.911Z,7.97
2023-01-29T23:46:00.271Z,10.13
2023-01-29T23:49:02.501Z,5.33
2023-01-29T23:52:04.463Z,4.33
2023-01-29T23:55:07.003Z,6.67
2023-01-29T23:58:09.021Z,3.77
